sensor_id;sensor_type;location;lat;lon;timestamp;temperature;humidity
582;DHT22;277;50.074;8.436;2023-04-24T00:00:51;11.60;99.90
582;DHT22;277;50.074;8.436;2023-04-24T00:03:19;11.50;99.90
582;DHT22;277;50.074;8.436;2023-04-24T00:05:48;11.40;99.90
582;DHT22;277;50.074;8.436;2023-04-24T00:08:18;11.20;99.90
582;DHT22;277;50.074;8.436;2023-04-24T00:10:46;11.20;99.90
582;DHT22;277;50.074;8.436;2023-04-24T00:13:14;11.20;99.90
582;DHT22;277;50.074;8.436;2023-04-24T00:15:42;11.10;99.90
582;DHT22;277;50.074;8.436;2023-04-24T00:18:10;11.10;99.90
582;DHT22;277;50.074;8.436;2023-04-24T00:20:38;11.10;99.90
582;DHT22;277;50.074;8.436;2023-04-24T00:23:06;11.00;99.90
582;DHT22;277;50.074;8.436;2023-04-24T00:25:35;11.00;99.90
582;DHT22;277;50.074;8.436;2023-04-24T00:28:03;11.00;99.90
582;DHT22;277;50.074;8.436;2023-04-24T00:30:31;11.00;99.90
582;DHT22;277;50.074;8.436;2023-04-24T00:32:59;11.00;99.90
582;DHT22;277;50.074;8.436;2023-04-24T00:35:27;11.00;99.90
582;DHT22;277;50.074;8.436;2023-04-24T00:37:54;11.00;99.90
582;DHT22;277;50.074;8.436;2023-04-24T00:40:23;11.00;99.90
582;DHT22;277;50.074;8.436;2023-04-24T00:42:52;11.00;99.90
582;DHT22;277;50.074;8.436;2023-04-24T00:45:20;11.10;99.90
582;DHT22;277;50.074;8.436;2023-04-24T00:47:48;11.10;99.90
582;DHT22;277;50.074;8.436;2023-04-24T00:50:16;11.00;99.90
582;DHT22;277;50.074;8.436;2023-04-24T00:52:44;11.00;99.90
582;DHT22;277;50.074;8.436;2023-04-24T00:55:12;11.00;99.90
582;DHT22;277;50.074;8.436;2023-04-24T00:57:40;11.00;99.90
582;DHT22;277;50.074;8.436;2023-04-24T01:00:10;10.90;99.90
582;DHT22;277;50.074;8.436;2023-04-24T01:02:39;11.00;99.90
582;DHT22;277;50.074;8.436;2023-04-24T01:05:11;10.90;99.90
582;DHT22;277;50.074;8.436;2023-04-24T01:07:40;10.90;99.90
582;DHT22;277;50.074;8.436;2023-04-24T01:10:23;10.90;99.90
582;DHT22;277;50.074;8.436;2023-04-24T01:12:51;10.90;99.90
582;DHT22;277;50.074;8.436;2023-04-24T01:15:21;10.90;99.90
582;DHT22;277;50.074;8.436;2023-04-24T01:17:49;10.90;99.90
582;DHT22;277;50.074;8.436;2023-04-24T01:20:17;10.90;99.90
582;DHT22;277;50.074;8.436;2023-04-24T01:22:47;10.80;99.90
582;DHT22;277;50.074;8.436;2023-04-24T01:25:15;10.80;99.90
582;DHT22;277;50.074;8.436;2023-04-24T01:27:43;10.70;99.90
582;DHT22;277;50.074;8.436;2023-04-24T01:30:12;10.70;99.90
582;DHT22;277;50.074;8.436;2023-04-24T01:32:40;10.70;99.90
582;DHT22;277;50.074;8.436;2023-04-24T01:35:11;10.70;99.90
582;DHT22;277;50.074;8.436;2023-04-24T01:37:38;10.80;99.90
582;DHT22;277;50.074;8.436;2023-04-24T01:40:08;10.90;99.90
582;DHT22;277;50.074;8.436;2023-04-24T01:42:36;10.90;99.90
582;DHT22;277;50.074;8.436;2023-04-24T01:45:05;10.90;99.90
582;DHT22;277;50.074;8.436;2023-04-24T01:47:33;11.10;99.90
582;DHT22;277;50.074;8.436;2023-04-24T01:50:02;11.10;99.90
582;DHT22;277;50.074;8.436;2023-04-24T01:52:30;11.00;99.90
582;DHT22;277;50.074;8.436;2023-04-24T01:55:00;11.10;99.90
582;DHT22;277;50.074;8.436;2023-04-24T01:57:29;11.00;99.90
582;DHT22;277;50.074;8.436;2023-04-24T01:59:57;11.00;99.90
582;DHT22;277;50.074;8.436;2023-04-24T02:02:26;10.80;99.90
582;DHT22;277;50.074;8.436;2023-04-24T02:04:55;10.70;99.90
582;DHT22;277;50.074;8.436;2023-04-24T02:07:23;10.80;99.90
582;DHT22;277;50.074;8.436;2023-04-24T02:09:51;10.80;99.90
582;DHT22;277;50.074;8.436;2023-04-24T02:12:19;10.70;99.90
582;DHT22;277;50.074;8.436;2023-04-24T02:14:48;10.70;99.90
582;DHT22;277;50.074;8.436;2023-04-24T02:17:17;10.70;99.90
582;DHT22;277;50.074;8.436;2023-04-24T02:19:45;10.70;99.90
582;DHT22;277;50.074;8.436;2023-04-24T02:22:13;10.70;99.90
582;DHT22;277;50.074;8.436;2023-04-24T02:24:41;10.70;99.90
582;DHT22;277;50.074;8.436;2023-04-24T02:27:09;10.70;99.90
582;DHT22;277;50.074;8.436;2023-04-24T02:29:38;10.80;99.90
582;DHT22;277;50.074;8.436;2023-04-24T02:32:07;10.80;99.90
582;DHT22;277;50.074;8.436;2023-04-24T02:34:38;10.80;99.90
582;DHT22;277;50.074;8.436;2023-04-24T02:37:05;10.80;99.90
582;DHT22;277;50.074;8.436;2023-04-24T02:39:33;10.80;99.90
582;DHT22;277;50.074;8.436;2023-04-24T02:42:01;10.80;99.90
582;DHT22;277;50.074;8.436;2023-04-24T02:44:29;10.80;99.90
582;DHT22;277;50.074;8.436;2023-04-24T02:46:57;10.80;99.90
582;DHT22;277;50.074;8.436;2023-04-24T02:49:26;10.90;99.90
582;DHT22;277;50.074;8.436;2023-04-24T02:51:54;11.00;99.90
582;DHT22;277;50.074;8.436;2023-04-24T02:54:22;11.00;99.90
582;DHT22;277;50.074;8.436;2023-04-24T02:56:50;11.10;99.90
582;DHT22;277;50.074;8.436;2023-04-24T02:59:18;11.30;99.90
582;DHT22;277;50.074;8.436;2023-04-24T03:01:45;11.40;99.90
582;DHT22;277;50.074;8.436;2023-04-24T03:04:13;11.40;99.90
582;DHT22;277;50.074;8.436;2023-04-24T03:06:43;11.40;99.90
582;DHT22;277;50.074;8.436;2023-04-24T03:09:11;11.50;99.90
582;DHT22;277;50.074;8.436;2023-04-24T03:11:39;11.40;99.90
582;DHT22;277;50.074;8.436;2023-04-24T03:14:07;11.50;99.90
582;DHT22;277;50.074;8.436;2023-04-24T03:16:35;11.40;99.90
582;DHT22;277;50.074;8.436;2023-04-24T03:19:03;11.50;99.90
582;DHT22;277;50.074;8.436;2023-04-24T03:21:31;11.50;99.90
582;DHT22;277;50.074;8.436;2023-04-24T03:24:00;11.50;99.90
582;DHT22;277;50.074;8.436;2023-04-24T03:26:28;11.40;99.90
582;DHT22;277;50.074;8.436;2023-04-24T03:28:56;11.50;99.90
582;DHT22;277;50.074;8.436;2023-04-24T03:31:24;11.40;99.90
582;DHT22;277;50.074;8.436;2023-04-24T03:33:52;11.50;99.90
582;DHT22;277;50.074;8.436;2023-04-24T03:36:20;11.50;99.90
582;DHT22;277;50.074;8.436;2023-04-24T03:38:47;11.40;99.90
582;DHT22;277;50.074;8.436;2023-04-24T03:41:17;11.40;99.90
582;DHT22;277;50.074;8.436;2023-04-24T03:43:45;11.40;99.90
582;DHT22;277;50.074;8.436;2023-04-24T03:46:13;11.40;99.90
582;DHT22;277;50.074;8.436;2023-04-24T03:48:48;11.30;99.90
582;DHT22;277;50.074;8.436;2023-04-24T03:51:16;11.30;99.90
582;DHT22;277;50.074;8.436;2023-04-24T03:53:44;11.20;99.90
582;DHT22;277;50.074;8.436;2023-04-24T03:56:12;11.20;99.90
582;DHT22;277;50.074;8.436;2023-04-24T03:58:42;11.10;99.90
582;DHT22;277;50.074;8.436;2023-04-24T04:01:10;11.00;99.90
582;DHT22;277;50.074;8.436;2023-04-24T04:03:38;10.90;99.90
582;DHT22;277;50.074;8.436;2023-04-24T04:06:07;10.90;99.90
582;DHT22;277;50.074;8.436;2023-04-24T04:08:34;10.90;99.90
582;DHT22;277;50.074;8.436;2023-04-24T04:11:02;10.90;99.90
582;DHT22;277;50.074;8.436;2023-04-24T04:13:31;10.80;99.90
582;DHT22;277;50.074;8.436;2023-04-24T04:16:00;10.80;99.90
582;DHT22;277;50.074;8.436;2023-04-24T04:18:28;10.70;99.90
582;DHT22;277;50.074;8.436;2023-04-24T04:20:56;10.80;99.90
582;DHT22;277;50.074;8.436;2023-04-24T04:23:24;10.70;99.90
582;DHT22;277;50.074;8.436;2023-04-24T04:25:52;10.60;99.90
582;DHT22;277;50.074;8.436;2023-04-24T04:28:21;10.60;99.90
582;DHT22;277;50.074;8.436;2023-04-24T04:30:49;10.50;99.90
582;DHT22;277;50.074;8.436;2023-04-24T04:33:21;10.50;99.90
582;DHT22;277;50.074;8.436;2023-04-24T04:35:49;10.50;99.90
582;DHT22;277;50.074;8.436;2023-04-24T04:38:18;10.50;99.90
582;DHT22;277;50.074;8.436;2023-04-24T04:40:46;10.60;99.90
582;DHT22;277;50.074;8.436;2023-04-24T04:43:14;10.60;99.90
582;DHT22;277;50.074;8.436;2023-04-24T04:45:42;10.60;99.90
582;DHT22;277;50.074;8.436;2023-04-24T04:48:11;10.70;99.90
582;DHT22;277;50.074;8.436;2023-04-24T04:50:41;10.80;99.90
582;DHT22;277;50.074;8.436;2023-04-24T04:53:09;10.90;99.90
582;DHT22;277;50.074;8.436;2023-04-24T04:55:37;10.80;99.90
582;DHT22;277;50.074;8.436;2023-04-24T04:58:05;10.90;99.90
582;DHT22;277;50.074;8.436;2023-04-24T05:00:33;10.80;99.90
582;DHT22;277;50.074;8.436;2023-04-24T05:03:02;10.60;99.90
582;DHT22;277;50.074;8.436;2023-04-24T05:05:47;10.50;99.90
582;DHT22;277;50.074;8.436;2023-04-24T05:08:15;10.40;99.90
582;DHT22;277;50.074;8.436;2023-04-24T05:10:53;10.30;99.90
582;DHT22;277;50.074;8.436;2023-04-24T05:13:21;10.30;99.90
582;DHT22;277;50.074;8.436;2023-04-24T05:16:04;10.30;99.90
582;DHT22;277;50.074;8.436;2023-04-24T05:18:32;10.10;99.90
582;DHT22;277;50.074;8.436;2023-04-24T05:21:01;10.00;99.90
582;DHT22;277;50.074;8.436;2023-04-24T05:23:29;10.00;99.90
582;DHT22;277;50.074;8.436;2023-04-24T05:25:57;9.90;99.90
582;DHT22;277;50.074;8.436;2023-04-24T05:28:25;9.90;99.90
582;DHT22;277;50.074;8.436;2023-04-24T05:30:55;9.90;99.90
582;DHT22;277;50.074;8.436;2023-04-24T05:33:23;9.80;99.90
582;DHT22;277;50.074;8.436;2023-04-24T05:35:51;9.80;99.90
582;DHT22;277;50.074;8.436;2023-04-24T05:38:20;9.80;99.90
582;DHT22;277;50.074;8.436;2023-04-24T05:40:48;9.80;99.90
582;DHT22;277;50.074;8.436;2023-04-24T05:43:16;9.80;99.90
582;DHT22;277;50.074;8.436;2023-04-24T05:45:44;9.70;99.90
582;DHT22;277;50.074;8.436;2023-04-24T05:48:11;9.80;99.90
582;DHT22;277;50.074;8.436;2023-04-24T05:50:39;9.80;99.90
582;DHT22;277;50.074;8.436;2023-04-24T05:53:07;9.90;99.90
582;DHT22;277;50.074;8.436;2023-04-24T05:55:38;9.80;99.90
582;DHT22;277;50.074;8.436;2023-04-24T05:58:06;9.90;99.90
582;DHT22;277;50.074;8.436;2023-04-24T06:00:34;9.90;99.90
582;DHT22;277;50.074;8.436;2023-04-24T06:03:02;10.00;99.90
582;DHT22;277;50.074;8.436;2023-04-24T06:05:31;10.00;99.90
582;DHT22;277;50.074;8.436;2023-04-24T06:07:59;9.90;99.90
582;DHT22;277;50.074;8.436;2023-04-24T06:10:27;9.80;99.90
582;DHT22;277;50.074;8.436;2023-04-24T06:12:56;9.70;99.90
582;DHT22;277;50.074;8.436;2023-04-24T06:15:28;9.70;99.90
582;DHT22;277;50.074;8.436;2023-04-24T06:17:57;9.70;99.90
582;DHT22;277;50.074;8.436;2023-04-24T06:20:26;9.80;99.90
582;DHT22;277;50.074;8.436;2023-04-24T06:22:54;9.90;99.90
582;DHT22;277;50.074;8.436;2023-04-24T06:25:24;10.00;99.90
582;DHT22;277;50.074;8.436;2023-04-24T06:27:52;10.00;99.90
582;DHT22;277;50.074;8.436;2023-04-24T06:30:22;10.10;99.90
582;DHT22;277;50.074;8.436;2023-04-24T06:32:50;10.10;99.90
582;DHT22;277;50.074;8.436;2023-04-24T06:35:18;10.10;99.90
582;DHT22;277;50.074;8.436;2023-04-24T06:37:46;10.10;99.90
582;DHT22;277;50.074;8.436;2023-04-24T06:40:14;10.20;99.90
582;DHT22;277;50.074;8.436;2023-04-24T06:42:42;10.40;99.90
582;DHT22;277;50.074;8.436;2023-04-24T06:45:10;10.70;99.90
582;DHT22;277;50.074;8.436;2023-04-24T06:47:39;10.90;99.90
582;DHT22;277;50.074;8.436;2023-04-24T06:50:08;11.00;99.90
582;DHT22;277;50.074;8.436;2023-04-24T06:52:36;11.10;99.90
582;DHT22;277;50.074;8.436;2023-04-24T06:55:04;11.30;99.90
582;DHT22;277;50.074;8.436;2023-04-24T06:57:33;11.40;99.90
582;DHT22;277;50.074;8.436;2023-04-24T07:00:01;11.50;99.90
582;DHT22;277;50.074;8.436;2023-04-24T07:02:29;11.60;99.90
582;DHT22;277;50.074;8.436;2023-04-24T07:04:59;11.80;99.90
582;DHT22;277;50.074;8.436;2023-04-24T07:07:27;12.00;99.90
582;DHT22;277;50.074;8.436;2023-04-24T07:09:56;12.10;99.90
582;DHT22;277;50.074;8.436;2023-04-24T07:12:24;12.30;99.90
582;DHT22;277;50.074;8.436;2023-04-24T07:14:52;12.10;99.90
582;DHT22;277;50.074;8.436;2023-04-24T07:17:21;12.00;99.90
582;DHT22;277;50.074;8.436;2023-04-24T07:19:48;12.00;99.90
582;DHT22;277;50.074;8.436;2023-04-24T07:22:18;11.80;99.90
582;DHT22;277;50.074;8.436;2023-04-24T07:24:46;11.80;99.90
582;DHT22;277;50.074;8.436;2023-04-24T07:27:13;11.90;99.90
582;DHT22;277;50.074;8.436;2023-04-24T07:29:42;12.00;99.90
582;DHT22;277;50.074;8.436;2023-04-24T07:32:11;12.10;99.90
582;DHT22;277;50.074;8.436;2023-04-24T07:34:38;12.20;99.90
582;DHT22;277;50.074;8.436;2023-04-24T07:37:07;12.40;99.90
582;DHT22;277;50.074;8.436;2023-04-24T07:39:36;12.40;99.90
582;DHT22;277;50.074;8.436;2023-04-24T07:42:04;12.60;99.90
582;DHT22;277;50.074;8.436;2023-04-24T07:44:32;12.70;99.90
582;DHT22;277;50.074;8.436;2023-04-24T07:47:00;12.70;99.90
582;DHT22;277;50.074;8.436;2023-04-24T07:49:27;12.60;99.90
582;DHT22;277;50.074;8.436;2023-04-24T07:51:55;12.50;99.90
582;DHT22;277;50.074;8.436;2023-04-24T07:54:23;12.60;99.90
582;DHT22;277;50.074;8.436;2023-04-24T07:56:52;12.70;99.90
582;DHT22;277;50.074;8.436;2023-04-24T07:59:20;12.80;99.90
582;DHT22;277;50.074;8.436;2023-04-24T08:01:48;13.00;99.90
582;DHT22;277;50.074;8.436;2023-04-24T08:04:16;13.20;99.90
582;DHT22;277;50.074;8.436;2023-04-24T08:06:44;13.20;99.90
582;DHT22;277;50.074;8.436;2023-04-24T08:09:12;13.20;99.90
582;DHT22;277;50.074;8.436;2023-04-24T08:11:40;13.30;99.90
582;DHT22;277;50.074;8.436;2023-04-24T08:14:09;13.60;99.90
582;DHT22;277;50.074;8.436;2023-04-24T08:16:39;14.00;99.90
582;DHT22;277;50.074;8.436;2023-04-24T08:19:07;14.20;99.90
582;DHT22;277;50.074;8.436;2023-04-24T08:21:35;14.40;99.90
582;DHT22;277;50.074;8.436;2023-04-24T08:24:03;14.40;99.90
582;DHT22;277;50.074;8.436;2023-04-24T08:26:34;14.40;99.90
582;DHT22;277;50.074;8.436;2023-04-24T08:29:02;14.30;99.90
582;DHT22;277;50.074;8.436;2023-04-24T08:31:32;14.00;99.90
582;DHT22;277;50.074;8.436;2023-04-24T08:34:00;13.90;99.90
582;DHT22;277;50.074;8.436;2023-04-24T08:36:28;13.70;99.90
582;DHT22;277;50.074;8.436;2023-04-24T08:39:12;13.40;99.90
582;DHT22;277;50.074;8.436;2023-04-24T08:41:41;13.20;99.90
582;DHT22;277;50.074;8.436;2023-04-24T08:44:10;12.90;99.90
582;DHT22;277;50.074;8.436;2023-04-24T08:46:39;12.80;99.90
582;DHT22;277;50.074;8.436;2023-04-24T08:49:07;12.60;99.90
582;DHT22;277;50.074;8.436;2023-04-24T08:51:36;12.50;99.90
582;DHT22;277;50.074;8.436;2023-04-24T08:54:04;12.30;99.90
582;DHT22;277;50.074;8.436;2023-04-24T08:56:34;12.20;99.90
582;DHT22;277;50.074;8.436;2023-04-24T08:59:06;12.10;99.90
582;DHT22;277;50.074;8.436;2023-04-24T09:01:34;12.00;99.90
582;DHT22;277;50.074;8.436;2023-04-24T09:04:08;12.00;99.90
582;DHT22;277;50.074;8.436;2023-04-24T09:06:38;12.00;99.90
582;DHT22;277;50.074;8.436;2023-04-24T09:09:07;11.90;99.90
582;DHT22;277;50.074;8.436;2023-04-24T09:11:36;11.90;99.90
582;DHT22;277;50.074;8.436;2023-04-24T09:14:04;12.00;99.90
582;DHT22;277;50.074;8.436;2023-04-24T09:16:33;12.10;99.90
582;DHT22;277;50.074;8.436;2023-04-24T09:19:02;12.20;99.90
582;DHT22;277;50.074;8.436;2023-04-24T09:21:34;12.30;99.90
582;DHT22;277;50.074;8.436;2023-04-24T09:24:05;12.30;99.90
582;DHT22;277;50.074;8.436;2023-04-24T09:26:36;12.10;99.90
582;DHT22;277;50.074;8.436;2023-04-24T09:29:04;12.00;99.90
582;DHT22;277;50.074;8.436;2023-04-24T09:31:32;12.00;99.90
582;DHT22;277;50.074;8.436;2023-04-24T09:34:01;11.90;99.90
582;DHT22;277;50.074;8.436;2023-04-24T09:36:35;12.00;99.90
582;DHT22;277;50.074;8.436;2023-04-24T09:39:05;12.20;99.90
582;DHT22;277;50.074;8.436;2023-04-24T09:41:44;12.30;99.90
582;DHT22;277;50.074;8.436;2023-04-24T09:44:13;12.40;99.90
582;DHT22;277;50.074;8.436;2023-04-24T09:46:42;12.40;99.90
582;DHT22;277;50.074;8.436;2023-04-24T09:49:13;12.70;99.90
582;DHT22;277;50.074;8.436;2023-04-24T09:51:44;12.90;99.90
582;DHT22;277;50.074;8.436;2023-04-24T09:54:14;13.00;99.90
582;DHT22;277;50.074;8.436;2023-04-24T09:56:44;13.00;99.90
582;DHT22;277;50.074;8.436;2023-04-24T09:59:13;13.10;99.90
582;DHT22;277;50.074;8.436;2023-04-24T10:01:41;13.00;99.90
582;DHT22;277;50.074;8.436;2023-04-24T10:04:16;13.00;99.90
582;DHT22;277;50.074;8.436;2023-04-24T10:06:47;12.90;99.90
582;DHT22;277;50.074;8.436;2023-04-24T10:09:15;13.00;99.90
582;DHT22;277;50.074;8.436;2023-04-24T10:11:45;12.90;99.90
582;DHT22;277;50.074;8.436;2023-04-24T10:14:13;12.70;99.90
582;DHT22;277;50.074;8.436;2023-04-24T10:16:42;12.60;99.90
582;DHT22;277;50.074;8.436;2023-04-24T10:19:10;12.50;99.90
582;DHT22;277;50.074;8.436;2023-04-24T10:21:40;12.40;99.90
582;DHT22;277;50.074;8.436;2023-04-24T10:24:14;12.30;99.90
582;DHT22;277;50.074;8.436;2023-04-24T10:26:44;12.20;99.90
582;DHT22;277;50.074;8.436;2023-04-24T10:29:14;12.20;99.90
582;DHT22;277;50.074;8.436;2023-04-24T10:31:43;12.10;99.90
582;DHT22;277;50.074;8.436;2023-04-24T10:34:13;11.90;99.90
582;DHT22;277;50.074;8.436;2023-04-24T10:36:45;11.90;99.90
582;DHT22;277;50.074;8.436;2023-04-24T10:39:18;11.90;99.90
582;DHT22;277;50.074;8.436;2023-04-24T10:41:54;12.00;99.90
582;DHT22;277;50.074;8.436;2023-04-24T10:44:24;12.10;99.90
582;DHT22;277;50.074;8.436;2023-04-24T10:46:54;12.20;99.90
582;DHT22;277;50.074;8.436;2023-04-24T10:49:28;12.50;99.90
582;DHT22;277;50.074;8.436;2023-04-24T10:52:00;12.70;99.90
582;DHT22;277;50.074;8.436;2023-04-24T10:54:34;12.80;99.90
582;DHT22;277;50.074;8.436;2023-04-24T11:00:18;13.50;99.90
582;DHT22;277;50.074;8.436;2023-04-24T11:02:47;14.20;99.90
582;DHT22;277;50.074;8.436;2023-04-24T11:05:18;14.50;99.90
582;DHT22;277;50.074;8.436;2023-04-24T11:08:12;14.60;99.90
582;DHT22;277;50.074;8.436;2023-04-24T11:10:44;14.40;99.90
582;DHT22;277;50.074;8.436;2023-04-24T11:13:15;14.20;99.90
582;DHT22;277;50.074;8.436;2023-04-24T11:15:43;14.00;99.90
582;DHT22;277;50.074;8.436;2023-04-24T11:18:14;14.00;99.90
582;DHT22;277;50.074;8.436;2023-04-24T11:20:44;13.80;99.90
582;DHT22;277;50.074;8.436;2023-04-24T11:23:12;13.70;99.90
582;DHT22;277;50.074;8.436;2023-04-24T11:25:42;13.60;99.90
582;DHT22;277;50.074;8.436;2023-04-24T11:28:14;13.50;99.90
582;DHT22;277;50.074;8.436;2023-04-24T11:30:43;14.10;99.90
582;DHT22;277;50.074;8.436;2023-04-24T11:33:11;14.70;99.90
582;DHT22;277;50.074;8.436;2023-04-24T11:35:47;14.90;99.90
582;DHT22;277;50.074;8.436;2023-04-24T11:38:17;15.20;99.90
582;DHT22;277;50.074;8.436;2023-04-24T11:40:52;15.50;99.90
582;DHT22;277;50.074;8.436;2023-04-24T11:43:21;16.00;99.90
582;DHT22;277;50.074;8.436;2023-04-24T11:45:49;16.20;99.90
582;DHT22;277;50.074;8.436;2023-04-24T11:48:19;16.80;99.90
582;DHT22;277;50.074;8.436;2023-04-24T11:50:50;16.90;99.90
582;DHT22;277;50.074;8.436;2023-04-24T11:53:19;16.30;99.90
582;DHT22;277;50.074;8.436;2023-04-24T11:55:48;15.70;99.90
582;DHT22;277;50.074;8.436;2023-04-24T11:58:20;15.30;99.90
582;DHT22;277;50.074;8.436;2023-04-24T12:00:56;14.60;99.90
582;DHT22;277;50.074;8.436;2023-04-24T12:03:23;13.90;99.90
582;DHT22;277;50.074;8.436;2023-04-24T12:05:52;13.00;99.90
582;DHT22;277;50.074;8.436;2023-04-24T12:08:27;12.40;99.90
582;DHT22;277;50.074;8.436;2023-04-24T12:10:55;12.10;99.90
582;DHT22;277;50.074;8.436;2023-04-24T12:13:26;12.10;99.90
582;DHT22;277;50.074;8.436;2023-04-24T12:15:54;12.00;99.90
582;DHT22;277;50.074;8.436;2023-04-24T12:18:22;11.80;99.90
582;DHT22;277;50.074;8.436;2023-04-24T12:20:51;11.70;99.90
582;DHT22;277;50.074;8.436;2023-04-24T12:23:33;11.60;99.90
582;DHT22;277;50.074;8.436;2023-04-24T12:26:03;11.60;99.90
582;DHT22;277;50.074;8.436;2023-04-24T12:28:37;11.70;99.90
582;DHT22;277;50.074;8.436;2023-04-24T12:31:06;11.90;99.90
582;DHT22;277;50.074;8.436;2023-04-24T12:33:34;12.10;99.90
582;DHT22;277;50.074;8.436;2023-04-24T12:36:03;12.20;99.90
582;DHT22;277;50.074;8.436;2023-04-24T12:38:32;12.40;99.90
582;DHT22;277;50.074;8.436;2023-04-24T12:41:08;12.60;99.90
582;DHT22;277;50.074;8.436;2023-04-24T12:43:38;12.80;99.90
582;DHT22;277;50.074;8.436;2023-04-24T12:46:06;13.00;99.90
582;DHT22;277;50.074;8.436;2023-04-24T12:48:34;13.20;99.90
582;DHT22;277;50.074;8.436;2023-04-24T12:51:02;14.00;99.90
582;DHT22;277;50.074;8.436;2023-04-24T12:53:30;14.90;99.90
582;DHT22;277;50.074;8.436;2023-04-24T12:55:58;15.50;99.90
582;DHT22;277;50.074;8.436;2023-04-24T12:58:26;15.80;99.90
582;DHT22;277;50.074;8.436;2023-04-24T13:00:55;15.50;99.90
582;DHT22;277;50.074;8.436;2023-04-24T13:03:23;15.00;99.90
582;DHT22;277;50.074;8.436;2023-04-24T13:05:51;14.60;99.90
582;DHT22;277;50.074;8.436;2023-04-24T13:08:19;14.90;99.90
582;DHT22;277;50.074;8.436;2023-04-24T13:10:47;15.70;99.90
582;DHT22;277;50.074;8.436;2023-04-24T13:13:14;16.00;99.90
582;DHT22;277;50.074;8.436;2023-04-24T13:15:42;15.90;99.90
582;DHT22;277;50.074;8.436;2023-04-24T13:18:11;15.50;99.90
582;DHT22;277;50.074;8.436;2023-04-24T13:20:39;15.30;99.90
582;DHT22;277;50.074;8.436;2023-04-24T13:23:08;14.80;99.90
582;DHT22;277;50.074;8.436;2023-04-24T13:25:36;14.50;99.90
582;DHT22;277;50.074;8.436;2023-04-24T13:28:05;14.10;99.90
582;DHT22;277;50.074;8.436;2023-04-24T13:30:33;14.00;99.90
582;DHT22;277;50.074;8.436;2023-04-24T13:33:02;13.80;99.90
582;DHT22;277;50.074;8.436;2023-04-24T13:35:31;14.00;99.90
582;DHT22;277;50.074;8.436;2023-04-24T13:37:59;14.00;99.90
582;DHT22;277;50.074;8.436;2023-04-24T13:40:30;13.90;99.90
582;DHT22;277;50.074;8.436;2023-04-24T13:42:58;13.70;99.90
582;DHT22;277;50.074;8.436;2023-04-24T13:45:25;13.50;99.90
582;DHT22;277;50.074;8.436;2023-04-24T13:47:53;13.40;99.90
582;DHT22;277;50.074;8.436;2023-04-24T13:50:22;13.40;99.90
582;DHT22;277;50.074;8.436;2023-04-24T13:52:51;13.90;99.90
582;DHT22;277;50.074;8.436;2023-04-24T13:55:18;14.90;99.90
582;DHT22;277;50.074;8.436;2023-04-24T13:57:46;15.60;99.90
582;DHT22;277;50.074;8.436;2023-04-24T14:00:15;16.40;99.90
582;DHT22;277;50.074;8.436;2023-04-24T14:02:43;16.70;99.90
582;DHT22;277;50.074;8.436;2023-04-24T14:05:12;16.70;99.90
582;DHT22;277;50.074;8.436;2023-04-24T14:07:41;16.60;99.90
582;DHT22;277;50.074;8.436;2023-04-24T14:10:10;16.10;99.90
582;DHT22;277;50.074;8.436;2023-04-24T14:12:38;15.80;99.90
582;DHT22;277;50.074;8.436;2023-04-24T14:15:07;15.80;99.90
582;DHT22;277;50.074;8.436;2023-04-24T14:17:35;16.20;99.90
582;DHT22;277;50.074;8.436;2023-04-24T14:20:05;16.20;99.90
582;DHT22;277;50.074;8.436;2023-04-24T14:22:33;16.00;99.90
582;DHT22;277;50.074;8.436;2023-04-24T14:25:01;15.50;99.90
582;DHT22;277;50.074;8.436;2023-04-24T14:27:31;15.00;99.90
582;DHT22;277;50.074;8.436;2023-04-24T14:30:01;14.50;99.90
582;DHT22;277;50.074;8.436;2023-04-24T14:32:29;14.30;99.90
582;DHT22;277;50.074;8.436;2023-04-24T14:34:57;14.00;99.90
582;DHT22;277;50.074;8.436;2023-04-24T14:37:25;14.00;99.90
582;DHT22;277;50.074;8.436;2023-04-24T14:39:53;13.90;99.90
582;DHT22;277;50.074;8.436;2023-04-24T14:42:42;13.90;99.90
582;DHT22;277;50.074;8.436;2023-04-24T14:45:10;13.90;99.90
582;DHT22;277;50.074;8.436;2023-04-24T14:47:38;13.90;99.90
582;DHT22;277;50.074;8.436;2023-04-24T14:50:07;14.00;99.90
582;DHT22;277;50.074;8.436;2023-04-24T14:52:36;14.10;99.90
582;DHT22;277;50.074;8.436;2023-04-24T14:55:05;14.20;99.90
582;DHT22;277;50.074;8.436;2023-04-24T14:57:34;14.20;99.90
582;DHT22;277;50.074;8.436;2023-04-24T15:00:05;14.10;99.90
582;DHT22;277;50.074;8.436;2023-04-24T15:02:35;14.00;99.90
582;DHT22;277;50.074;8.436;2023-04-24T15:05:07;14.00;99.90
582;DHT22;277;50.074;8.436;2023-04-24T15:07:36;14.00;99.90
582;DHT22;277;50.074;8.436;2023-04-24T15:10:05;14.00;99.90
582;DHT22;277;50.074;8.436;2023-04-24T15:12:33;13.90;99.90
582;DHT22;277;50.074;8.436;2023-04-24T15:15:01;14.00;99.90
582;DHT22;277;50.074;8.436;2023-04-24T15:17:30;13.90;99.90
582;DHT22;277;50.074;8.436;2023-04-24T15:19:58;13.80;99.90
582;DHT22;277;50.074;8.436;2023-04-24T15:22:27;13.70;99.90
582;DHT22;277;50.074;8.436;2023-04-24T15:24:55;13.60;99.90
582;DHT22;277;50.074;8.436;2023-04-24T15:27:23;13.60;99.90
582;DHT22;277;50.074;8.436;2023-04-24T15:29:51;13.60;99.90
582;DHT22;277;50.074;8.436;2023-04-24T15:32:20;13.60;99.90
582;DHT22;277;50.074;8.436;2023-04-24T15:34:49;13.60;99.90
582;DHT22;277;50.074;8.436;2023-04-24T15:37:33;13.60;99.90
582;DHT22;277;50.074;8.436;2023-04-24T15:40:01;13.50;99.90
582;DHT22;277;50.074;8.436;2023-04-24T15:42:30;13.50;99.90
582;DHT22;277;50.074;8.436;2023-04-24T15:44:58;13.50;99.90
582;DHT22;277;50.074;8.436;2023-04-24T15:47:26;13.60;99.90
582;DHT22;277;50.074;8.436;2023-04-24T15:49:57;13.60;99.90
582;DHT22;277;50.074;8.436;2023-04-24T15:52:25;13.70;99.90
582;DHT22;277;50.074;8.436;2023-04-24T15:54:53;13.60;99.90
582;DHT22;277;50.074;8.436;2023-04-24T15:57:21;13.60;99.90
582;DHT22;277;50.074;8.436;2023-04-24T15:59:49;13.60;99.90
582;DHT22;277;50.074;8.436;2023-04-24T16:02:17;13.40;99.90
582;DHT22;277;50.074;8.436;2023-04-24T16:04:47;13.40;99.90
582;DHT22;277;50.074;8.436;2023-04-24T16:07:17;13.30;99.90
582;DHT22;277;50.074;8.436;2023-04-24T16:09:45;13.10;99.90
582;DHT22;277;50.074;8.436;2023-04-24T16:12:13;13.10;99.90
582;DHT22;277;50.074;8.436;2023-04-24T16:14:41;13.10;99.90
582;DHT22;277;50.074;8.436;2023-04-24T16:17:09;13.20;99.90
582;DHT22;277;50.074;8.436;2023-04-24T16:19:37;13.20;99.90
582;DHT22;277;50.074;8.436;2023-04-24T16:22:04;13.20;99.90
582;DHT22;277;50.074;8.436;2023-04-24T16:24:34;13.10;99.90
582;DHT22;277;50.074;8.436;2023-04-24T16:27:02;13.10;99.90
582;DHT22;277;50.074;8.436;2023-04-24T16:29:30;13.20;99.90
582;DHT22;277;50.074;8.436;2023-04-24T16:31:58;13.30;99.90
582;DHT22;277;50.074;8.436;2023-04-24T16:34:25;13.40;99.90
582;DHT22;277;50.074;8.436;2023-04-24T16:36:53;13.40;99.90
582;DHT22;277;50.074;8.436;2023-04-24T16:39:22;13.60;99.90
582;DHT22;277;50.074;8.436;2023-04-24T16:41:51;13.60;99.90
582;DHT22;277;50.074;8.436;2023-04-24T16:44:22;13.60;99.90
582;DHT22;277;50.074;8.436;2023-04-24T16:46:50;13.60;99.90
582;DHT22;277;50.074;8.436;2023-04-24T16:49:18;13.60;99.90